createdAt,value
2023-03-30T00:02:32.090Z,100826.34
2023-03-30T00:05:10.789Z,100821.85
2023-03-30T00:07:48.860Z,100818.02
2023-03-30T00:10:24.516Z,100815.66
2023-03-30T00:12:59.670Z,100816.73
2023-03-30T00:15:35.103Z,100816.27
2023-03-30T00:18:11.934Z,100809.59
2023-03-30T00:20:47.516Z,100811.42
2023-03-30T00:23:21.116Z,100814.85
2023-03-30T00:25:56.457Z,100813.06
2023-03-30T00:28:33.471Z,100801.80
2023-03-30T00:31:13.952Z,100803.16
2023-03-30T00:33:49.596Z,100797.98
2023-03-30T00:36:24.775Z,100794.33
2023-03-30T00:39:01.476Z,100792.00
2023-03-30T00:41:39.360Z,100794.45
2023-03-30T00:44:44.678Z,100788.44
2023-03-30T00:47:24.509Z,100784.98
2023-03-30T00:49:59.948Z,100788.44
2023-03-30T00:52:38.221Z,100786.09
2023-03-30T00:55:14.662Z,100786.46
2023-03-30T00:57:51.590Z,100779.95
2023-03-30T01:00:27.127Z,100779.02
2023-03-30T01:03:13.344Z,100778.14
2023-03-30T01:05:47.626Z,100776.29
2023-03-30T01:08:27.740Z,100773.71
2023-03-30T01:11:04.204Z,100777.82
2023-03-30T01:13:46.033Z,100774.41
2023-03-30T01:16:29.349Z,100769.98
2023-03-30T01:19:19.875Z,100770.85
2023-03-30T01:22:15.729Z,100767.42
2023-03-30T01:25:22.106Z,100765.06
2023-03-30T01:28:30.731Z,100761.52
2023-03-30T01:31:44.993Z,100762.89
2023-03-30T01:34:52.376Z,100763.70
2023-03-30T01:38:07.987Z,100760.54
2023-03-30T01:40:47.024Z,100756.65
2023-03-30T01:43:28.791Z,100758.23
2023-03-30T01:46:09.989Z,100757.77
2023-03-30T01:48:53.200Z,100757.91
2023-03-30T01:51:33.807Z,100761.02
2023-03-30T01:54:20.946Z,100755.39
2023-03-30T01:57:02.426Z,100757.36
2023-03-30T01:59:42.968Z,100756.33
2023-03-30T02:02:25.027Z,100758.30
2023-03-30T02:05:02.439Z,100754.52
2023-03-30T02:07:42.668Z,100753.52
2023-03-30T02:10:20.923Z,100753.83
2023-03-30T02:12:58.058Z,100754.45
2023-03-30T02:15:37.105Z,100753.82
2023-03-30T02:18:11.915Z,100751.17
2023-03-30T02:20:50.680Z,100745.93
2023-03-30T02:23:32.163Z,100749.73
2023-03-30T02:26:08.324Z,100744.40
2023-03-30T02:28:44.820Z,100743.42
2023-03-30T02:31:20.475Z,100742.47
2023-03-30T02:34:12.557Z,100741.84
2023-03-30T02:37:12.452Z,100741.52
2023-03-30T02:40:00.406Z,100733.19
2023-03-30T02:43:08.632Z,100730.94
2023-03-30T02:45:53.988Z,100726.98
2023-03-30T02:48:42.874Z,100724.77
2023-03-30T02:51:36.130Z,100720.66
2023-03-30T02:54:36.079Z,100717.55
2023-03-30T02:57:57.427Z,100715.90
2023-03-30T03:00:52.965Z,100711.94
2023-03-30T03:03:40.537Z,100706.23
2023-03-30T03:06:16.333Z,100705.48
2023-03-30T03:08:59.728Z,100702.99
2023-03-30T03:11:37.803Z,100698.85
2023-03-30T03:14:12.749Z,100701.98
2023-03-30T03:16:49.796Z,100697.42
2023-03-30T03:19:26.017Z,100696.86
2023-03-30T03:22:03.101Z,100693.22
2023-03-30T03:24:44.951Z,100690.41
2023-03-30T03:27:42.674Z,100688.30
2023-03-30T03:30:28.792Z,100684.67
2023-03-30T03:33:11.774Z,100688.48
2023-03-30T03:35:47.995Z,100684.66
2023-03-30T03:38:22.186Z,100678.36
2023-03-30T03:41:02.054Z,100673.68
2023-03-30T03:43:37.432Z,100671.13
2023-03-30T03:46:13.806Z,100670.33
2023-03-30T03:48:51.072Z,100661.46
2023-03-30T03:51:26.641Z,100662.80
2023-03-30T03:54:01.670Z,100659.14
2023-03-30T03:56:36.706Z,100653.80
2023-03-30T03:59:13.132Z,100652.07
2023-03-30T04:01:48.958Z,100645.66
2023-03-30T04:04:24.220Z,100640.98
2023-03-30T04:07:00.107Z,100637.70
2023-03-30T04:09:41.801Z,100636.52
2023-03-30T04:12:36.193Z,100634.11
2023-03-30T04:15:20.971Z,100633.73
2023-03-30T04:18:13.412Z,100632.08
2023-03-30T04:20:58.005Z,100630.56
2023-03-30T04:23:55.730Z,100623.60
2023-03-30T04:26:51.027Z,100619.14
2023-03-30T04:29:36.995Z,100616.16
2023-03-30T04:32:24.364Z,100614.95
2023-03-30T04:35:06.587Z,100620.41
2023-03-30T04:37:54.739Z,100617.38
2023-03-30T04:40:49.221Z,100615.59
2023-03-30T04:43:34.697Z,100609.15
2023-03-30T04:46:09.791Z,100607.16
2023-03-30T04:48:58.962Z,100605.30
2023-03-30T04:51:48.477Z,100598.94
2023-03-30T04:54:43.721Z,100593.91
2023-03-30T04:57:56.455Z,100588.91
2023-03-30T05:01:01.418Z,100583.66
2023-03-30T05:04:11.628Z,100580.84
2023-03-30T05:07:11.163Z,100579.52
2023-03-30T05:10:15.397Z,100576.91
2023-03-30T05:12:51.846Z,100578.94
2023-03-30T05:15:46.198Z,100578.20
2023-03-30T05:18:54.437Z,100578.52
2023-03-30T05:21:46.971Z,100580.44
2023-03-30T05:24:43.986Z,100581.47
2023-03-30T05:27:34.779Z,100587.57
2023-03-30T05:30:27.490Z,100592.10
2023-03-30T05:33:21.201Z,100594.90
2023-03-30T05:36:04.926Z,100594.30
2023-03-30T05:39:07.821Z,100586.60
2023-03-30T05:41:59.877Z,100590.02
2023-03-30T05:45:00.793Z,100586.05
2023-03-30T05:48:15.521Z,100585.89
2023-03-30T05:51:12.377Z,100582.94
2023-03-30T05:54:05.995Z,100574.80
2023-03-30T05:57:06.186Z,100576.63
2023-03-30T05:59:51.931Z,100577.72
2023-03-30T06:02:37.009Z,100575.58
2023-03-30T06:05:15.206Z,100581.20
2023-03-30T06:07:51.699Z,100575.43
2023-03-30T06:10:28.742Z,100577.54
2023-03-30T06:13:08.457Z,100578.67
2023-03-30T06:15:54.702Z,100573.42
2023-03-30T06:18:32.152Z,100569.29
2023-03-30T06:21:30.261Z,100565.63
2023-03-30T06:24:25.866Z,100558.08
2023-03-30T06:27:06.027Z,100557.94
2023-03-30T06:29:45.044Z,100558.80
2023-03-30T06:32:20.535Z,100557.83
2023-03-30T06:35:04.270Z,100559.58
2023-03-30T06:37:41.088Z,100556.38
2023-03-30T06:40:21.065Z,100556.10
2023-03-30T06:42:58.630Z,100552.41
2023-03-30T06:45:59.217Z,100551.23
2023-03-30T06:48:37.784Z,100547.39
2023-03-30T06:51:36.736Z,100546.19
2023-03-30T06:54:21.475Z,100549.75
2023-03-30T06:57:06.110Z,100549.08
2023-03-30T06:59:42.886Z,100545.27
2023-03-30T07:02:32.355Z,100544.85
2023-03-30T07:05:25.285Z,100543.17
2023-03-30T07:08:11.216Z,100542.38
2023-03-30T07:10:56.106Z,100542.55
2023-03-30T07:13:33.553Z,100543.91
2023-03-30T07:16:09.189Z,100541.79
2023-03-30T07:18:48.030Z,100538.58
2023-03-30T07:21:23.918Z,100542.10
2023-03-30T07:24:01.506Z,100538.66
2023-03-30T07:26:43.345Z,100534.02
2023-03-30T07:29:18.364Z,100530.15
2023-03-30T07:32:00.290Z,100530.15
2023-03-30T07:34:38.664Z,100529.43
2023-03-30T07:37:20.308Z,100529.14
2023-03-30T07:39:58.684Z,100526.16
2023-03-30T07:42:32.501Z,100527.53
2023-03-30T07:45:16.066Z,100520.36
2023-03-30T07:47:52.966Z,100519.26
2023-03-30T07:50:31.029Z,100513.48
2023-03-30T07:53:09.176Z,100507.37
2023-03-30T07:55:46.957Z,100505.95
2023-03-30T07:58:29.578Z,100502.91
2023-03-30T08:01:05.635Z,100504.83
2023-03-30T08:03:52.712Z,100504.14
2023-03-30T08:06:27.452Z,100504.17
2023-03-30T08:09:05.190Z,100496.84
2023-03-30T08:11:39.584Z,100491.77
2023-03-30T08:14:14.910Z,100489.13
2023-03-30T08:16:48.837Z,100484.89
2023-03-30T08:19:24.899Z,100481.63
2023-03-30T08:21:58.997Z,100482.69
2023-03-30T08:24:34.654Z,100476.41
2023-03-30T08:27:09.703Z,100475.86
2023-03-30T08:29:45.823Z,100473.46
2023-03-30T08:32:21.324Z,100468.88
2023-03-30T08:34:57.115Z,100460.95
2023-03-30T08:37:36.132Z,100461.58
2023-03-30T08:40:19.689Z,100459.73
2023-03-30T08:43:07.032Z,100462.85
2023-03-30T08:45:43.562Z,100463.17
2023-03-30T08:48:21.838Z,100458.86
2023-03-30T08:51:02.594Z,100454.48
2023-03-30T08:53:39.634Z,100456.23
2023-03-30T08:56:22.891Z,100448.76
2023-03-30T08:59:09.639Z,100446.41
2023-03-30T09:01:55.342Z,100442.80
2023-03-30T09:04:44.751Z,100439.14
2023-03-30T09:07:24.749Z,100439.69
2023-03-30T09:10:02.667Z,100432.17
2023-03-30T09:12:43.412Z,100430.11
2023-03-30T09:15:22.140Z,100420.18
2023-03-30T09:18:04.690Z,100419.70
2023-03-30T09:20:45.517Z,100412.73
2023-03-30T09:23:22.604Z,100411.27
2023-03-30T09:26:05.266Z,100407.09
2023-03-30T09:28:50.787Z,100399.89
2023-03-30T09:31:32.324Z,100388.00
2023-03-30T09:34:16.131Z,100378.92
2023-03-30T09:36:58.528Z,100378.36
2023-03-30T09:39:36.289Z,100371.69
2023-03-30T09:42:24.418Z,100368.08
2023-03-30T09:45:09.193Z,100364.33
2023-03-30T09:47:45.342Z,100353.04
2023-03-30T09:50:27.292Z,100347.57
2023-03-30T09:53:05.431Z,100350.31
2023-03-30T09:55:40.289Z,100342.98
2023-03-30T09:58:19.697Z,100342.36
2023-03-30T10:01:10.554Z,100344.06
2023-03-30T10:03:46.619Z,100343.55
2023-03-30T10:06:24.901Z,100346.02
2023-03-30T10:09:03.196Z,100339.72
2023-03-30T10:11:41.637Z,100334.05
2023-03-30T10:17:24.803Z,100324.65
2023-03-30T10:20:23.903Z,100324.85
2023-03-30T10:23:06.279Z,100321.98
2023-03-30T10:25:46.974Z,100317.30
2023-03-30T10:28:28.153Z,100312.80
2023-03-30T10:31:07.029Z,100308.90
2023-03-30T10:33:46.909Z,100300.41
2023-03-30T10:36:32.666Z,100295.06
2023-03-30T10:39:14.543Z,100285.42
2023-03-30T10:41:52.280Z,100279.73
2023-03-30T10:44:33.799Z,100277.73
2023-03-30T10:48:02.985Z,100271.97
2023-03-30T10:50:51.670Z,100256.70
2023-03-30T10:53:41.755Z,100252.20
2023-03-30T10:56:26.429Z,100254.48
2023-03-30T10:59:36.007Z,100245.81
2023-03-30T11:02:46.278Z,100230.13
2023-03-30T11:05:26.429Z,100224.49
2023-03-30T11:08:07.115Z,100223.11
2023-03-30T11:10:45.029Z,100224.89
2023-03-30T11:13:26.455Z,100227.45
2023-03-30T11:16:15.166Z,100226.91
2023-03-30T11:18:55.900Z,100227.21
2023-03-30T11:21:42.459Z,100231.50
2023-03-30T11:24:21.842Z,100236.38
2023-03-30T11:27:03.087Z,100234.02
2023-03-30T11:29:45.305Z,100234.55
2023-03-30T11:32:49.211Z,100235.87
2023-03-30T11:35:33.613Z,100231.42
2023-03-30T11:38:15.242Z,100226.13
2023-03-30T11:40:54.073Z,100230.02
2023-03-30T11:43:32.406Z,100226.02
2023-03-30T11:46:16.030Z,100225.70
2023-03-30T11:49:29.469Z,100220.66
2023-03-30T11:52:15.061Z,100212.57
2023-03-30T11:55:28.521Z,100207.09
2023-03-30T11:58:16.862Z,100207.37
2023-03-30T12:01:11.022Z,100204.80
2023-03-30T12:03:50.009Z,100199.17
2023-03-30T12:06:55.546Z,100193.71
2023-03-30T12:09:35.526Z,100188.37
2023-03-30T12:12:16.426Z,100176.77
2023-03-30T12:15:01.918Z,100164.52
2023-03-30T12:17:47.843Z,100152.88
2023-03-30T12:20:51.425Z,100147.83
2023-03-30T12:23:44.381Z,100137.78
2023-03-30T12:26:31.998Z,100135.33
2023-03-30T12:32:25.118Z,100131.06
2023-03-30T12:35:25.388Z,100122.71
2023-03-30T12:38:03.271Z,100126.52
2023-03-30T12:40:39.476Z,100125.17
2023-03-30T12:43:23.621Z,100120.30
2023-03-30T12:46:08.272Z,100121.92
2023-03-30T12:48:52.896Z,100114.56
2023-03-30T12:51:45.723Z,100113.98
2023-03-30T12:54:52.323Z,100112.98
2023-03-30T12:57:41.035Z,100104.40
2023-03-30T13:00:49.905Z,100098.29
2023-03-30T13:03:42.552Z,100098.64
2023-03-30T13:06:27.478Z,100087.80
2023-03-30T13:09:29.277Z,100078.77
2023-03-30T13:12:38.875Z,100076.89
2023-03-30T13:15:42.749Z,100080.81
2023-03-30T13:18:38.300Z,100084.73
2023-03-30T13:21:26.287Z,100085.59
2023-03-30T13:24:24.451Z,100088.30
2023-03-30T13:27:23.052Z,100087.95
2023-03-30T13:30:01.824Z,100095.54
2023-03-30T13:32:48.822Z,100098.28
2023-03-30T13:36:01.996Z,100098.88
2023-03-30T13:38:52.815Z,100102.15
2023-03-30T13:41:48.032Z,100095.79
2023-03-30T13:44:37.866Z,100092.65
2023-03-30T13:47:47.053Z,100080.73
2023-03-30T13:50:28.775Z,100071.73
2023-03-30T13:53:10.305Z,100077.09
2023-03-30T13:55:48.683Z,100082.92
2023-03-30T13:58:29.960Z,100080.73
2023-03-30T14:01:10.019Z,100064.83
2023-03-30T14:03:47.568Z,100051.13
2023-03-30T14:06:23.501Z,100051.03
2023-03-30T14:09:16.929Z,100043.09
2023-03-30T14:11:54.986Z,100043.48
2023-03-30T14:14:36.391Z,100039.31
2023-03-30T14:17:22.334Z,100034.43
2023-03-30T14:20:16.795Z,100034.19
2023-03-30T14:22:54.311Z,100033.17
2023-03-30T14:25:31.734Z,100033.69
2023-03-30T14:28:14.433Z,100023.17
2023-03-30T14:30:58.834Z,100016.09
2023-03-30T14:33:40.796Z,100013.66
2023-03-30T14:36:19.020Z,100003.67
2023-03-30T14:38:57.877Z,100001.63
2023-03-30T14:41:32.966Z,99997.60
2023-03-30T14:44:09.972Z,99996.81
2023-03-30T14:46:49.858Z,99994.95
2023-03-30T14:49:28.954Z,99985.98
2023-03-30T14:52:09.472Z,99972.41
2023-03-30T14:54:54.265Z,99959.64
2023-03-30T14:57:38.978Z,99958.90
2023-03-30T15:00:22.666Z,99963.17
2023-03-30T15:03:01.801Z,99963.23
2023-03-30T15:05:41.771Z,99956.44
2023-03-30T15:08:30.414Z,99946.04
2023-03-30T15:11:09.148Z,99935.39
2023-03-30T15:13:50.135Z,99930.48
2023-03-30T15:16:30.817Z,99925.95
2023-03-30T15:19:09.004Z,99919.77
2023-03-30T15:21:44.074Z,99920.94
2023-03-30T15:24:26.746Z,99916.73
2023-03-30T15:27:04.966Z,99916.95
2023-03-30T15:29:41.160Z,99908.52
2023-03-30T15:32:21.492Z,99900.80
2023-03-30T15:35:21.744Z,99894.67
2023-03-30T15:38:00.454Z,99889.70
2023-03-30T15:40:38.891Z,99880.85
2023-03-30T15:43:25.947Z,99879.98
2023-03-30T15:46:04.272Z,99876.02
2023-03-30T15:48:45.965Z,99876.64
2023-03-30T15:51:27.867Z,99869.95
2023-03-30T15:54:13.334Z,99865.63
2023-03-30T15:56:57.431Z,99860.53
2023-03-30T15:59:36.076Z,99855.64
2023-03-30T16:02:22.137Z,99851.25
2023-03-30T16:04:55.877Z,99849.80
2023-03-30T16:07:32.748Z,99851.86
2023-03-30T16:10:10.270Z,99849.40
2023-03-30T16:12:47.304Z,99853.41
2023-03-30T16:15:26.067Z,99851.73
2023-03-30T16:18:01.892Z,99851.99
2023-03-30T16:20:39.321Z,99849.89
2023-03-30T16:23:14.629Z,99845.98
2023-03-30T16:25:48.539Z,99839.64
2023-03-30T16:28:24.300Z,99836.35
2023-03-30T16:31:04.012Z,99839.63
2023-03-30T16:33:39.135Z,99845.52
2023-03-30T16:36:17.924Z,99848.61
2023-03-30T16:38:54.122Z,99846.45
2023-03-30T16:41:29.295Z,99841.08
2023-03-30T16:44:03.069Z,99840.92
2023-03-30T16:46:37.235Z,99836.82
2023-03-30T16:49:16.023Z,99841.59
2023-03-30T16:51:49.857Z,99851.08
2023-03-30T16:54:32.068Z,99856.05
2023-03-30T16:57:09.813Z,99854.36
2023-03-30T16:59:46.174Z,99847.06
2023-03-30T17:02:22.915Z,99844.58
2023-03-30T17:04:59.559Z,99844.73
2023-03-30T17:07:37.689Z,99846.11
2023-03-30T17:10:29.270Z,99848.70
2023-03-30T17:13:05.359Z,99845.45
2023-03-30T17:15:40.171Z,99840.28
2023-03-30T17:18:20.424Z,99842.67
2023-03-30T17:21:02.035Z,99845.77
2023-03-30T17:23:39.290Z,99837.23
2023-03-30T17:26:16.446Z,99836.58
2023-03-30T17:28:52.470Z,99837.00
2023-03-30T17:31:27.797Z,99841.34
2023-03-30T17:34:03.705Z,99843.55
2023-03-30T17:36:39.101Z,99846.20
2023-03-30T17:39:16.942Z,99846.81
2023-03-30T17:41:54.457Z,99851.83
2023-03-30T17:44:29.724Z,99852.38
2023-03-30T17:47:06.402Z,99844.48
2023-03-30T17:49:43.227Z,99839.07
2023-03-30T17:52:17.202Z,99832.81
2023-03-30T17:54:52.733Z,99834.45
2023-03-30T17:57:28.017Z,99826.11
2023-03-30T18:00:03.304Z,99829.25
2023-03-30T18:02:39.896Z,99818.27
2023-03-30T18:05:16.879Z,99818.35
2023-03-30T18:07:52.714Z,99817.71
2023-03-30T18:10:31.828Z,99822.89
2023-03-30T18:13:06.919Z,99815.02
2023-03-30T18:15:41.404Z,99809.04
2023-03-30T18:18:22.625Z,99807.95
2023-03-30T18:21:02.960Z,99822.30
2023-03-30T18:23:38.628Z,99835.94
2023-03-30T18:26:15.287Z,99837.92
2023-03-30T18:28:49.020Z,99836.95
2023-03-30T18:31:23.670Z,99829.52
2023-03-30T18:34:00.469Z,99828.83
2023-03-30T18:36:34.707Z,99823.38
2023-03-30T18:39:17.193Z,99812.97
2023-03-30T18:41:51.710Z,99811.33
2023-03-30T18:44:25.372Z,99813.75
2023-03-30T18:47:01.774Z,99809.10
2023-03-30T18:49:38.393Z,99806.56
2023-03-30T18:52:16.835Z,99804.38
2023-03-30T18:54:51.459Z,99801.49
2023-03-30T18:57:26.570Z,99789.35
2023-03-30T19:00:02.496Z,99780.00
2023-03-30T19:02:38.687Z,99779.63
2023-03-30T19:05:17.608Z,99787.74
2023-03-30T19:07:53.124Z,99789.82
2023-03-30T19:10:29.870Z,99784.70
2023-03-30T19:13:05.444Z,99784.52
2023-03-30T19:15:42.099Z,99790.49
2023-03-30T19:18:18.143Z,99788.49
2023-03-30T19:20:56.340Z,99792.32
2023-03-30T19:23:30.621Z,99791.39
2023-03-30T19:26:05.501Z,99793.19
2023-03-30T19:28:41.761Z,99790.23
2023-03-30T19:31:18.996Z,99788.42
2023-03-30T19:33:56.003Z,99785.46
2023-03-30T19:36:32.512Z,99788.48
2023-03-30T19:39:06.753Z,99789.33
2023-03-30T19:41:42.892Z,99794.38
2023-03-30T19:44:18.201Z,99792.65
2023-03-30T19:46:51.531Z,99784.58
2023-03-30T19:49:25.757Z,99788.01
2023-03-30T19:51:59.254Z,99792.77
2023-03-30T19:54:36.249Z,99790.98
2023-03-30T19:57:13.534Z,99791.70
2023-03-30T19:59:49.248Z,99790.98
2023-03-30T20:02:24.155Z,99795.35
2023-03-30T20:05:04.119Z,99792.05
2023-03-30T20:07:38.152Z,99788.42
2023-03-30T20:10:20.121Z,99776.88
2023-03-30T20:12:56.533Z,99762.64
2023-03-30T20:15:34.068Z,99754.92
2023-03-30T20:18:08.836Z,99752.27
2023-03-30T20:20:44.428Z,99755.78
2023-03-30T20:23:20.725Z,99759.22
2023-03-30T20:25:59.029Z,99759.49
2023-03-30T20:28:35.610Z,99761.67
2023-03-30T20:31:20.092Z,99762.41
2023-03-30T20:34:03.539Z,99778.89
2023-03-30T20:36:37.468Z,99785.70
2023-03-30T20:39:14.341Z,99785.56
2023-03-30T20:41:54.537Z,99789.57
2023-03-30T20:44:32.243Z,99789.84
2023-03-30T20:47:09.095Z,99796.61
2023-03-30T20:49:44.304Z,99793.25
2023-03-30T20:52:18.754Z,99794.94
2023-03-30T20:54:53.803Z,99801.52
2023-03-30T20:57:27.839Z,99804.48
2023-03-30T21:00:07.392Z,99808.98
2023-03-30T21:02:45.047Z,99807.42
2023-03-30T21:05:20.829Z,99806.32
2023-03-30T21:08:00.200Z,99809.54
2023-03-30T21:10:36.646Z,99811.88
2023-03-30T21:13:11.201Z,99816.30
2023-03-30T21:15:47.000Z,99818.30
2023-03-30T21:18:23.068Z,99818.34
2023-03-30T21:20:58.451Z,99812.86
2023-03-30T21:23:34.460Z,99811.98
2023-03-30T21:26:10.269Z,99817.08
2023-03-30T21:28:46.721Z,99818.77
2023-03-30T21:31:21.798Z,99822.02
2023-03-30T21:33:58.230Z,99824.67
2023-03-30T21:36:33.923Z,99823.45
2023-03-30T21:39:08.926Z,99823.98
2023-03-30T21:41:43.683Z,99824.10
2023-03-30T21:44:16.897Z,99828.13
2023-03-30T21:46:55.210Z,99837.88
2023-03-30T21:49:29.724Z,99834.10
2023-03-30T21:52:04.778Z,99831.27
2023-03-30T21:54:56.162Z,99828.47
2023-03-30T21:57:32.491Z,99825.30
2023-03-30T22:00:10.640Z,99828.05
2023-03-30T22:03:06.122Z,99825.52
2023-03-30T22:05:44.614Z,99821.92
2023-03-30T22:08:19.886Z,99818.87
2023-03-30T22:11:01.051Z,99817.98
2023-03-30T22:13:35.885Z,99816.96
2023-03-30T22:16:13.361Z,99810.02
2023-03-30T22:18:52.043Z,99806.99
2023-03-30T22:21:34.846Z,99810.08
2023-03-30T22:24:15.711Z,99803.64
2023-03-30T22:26:50.543Z,99805.27
2023-03-30T22:29:25.450Z,99803.89
2023-03-30T22:32:01.861Z,99803.35
2023-03-30T22:34:37.789Z,99801.16
2023-03-30T22:37:12.776Z,99803.49
2023-03-30T22:39:47.935Z,99810.11
2023-03-30T22:42:23.624Z,99814.00
2023-03-30T22:44:59.241Z,99818.85
2023-03-30T22:47:36.864Z,99823.16
2023-03-30T22:50:19.004Z,99824.23
2023-03-30T22:52:57.116Z,99825.27
2023-03-30T22:55:33.016Z,99828.10
2023-03-30T22:58:11.471Z,99836.69
2023-03-30T23:00:47.074Z,99837.45
2023-03-30T23:03:23.198Z,99840.95
2023-03-30T23:06:01.406Z,99841.73
2023-03-30T23:08:36.148Z,99843.49
2023-03-30T23:11:13.723Z,99842.65
2023-03-30T23:13:49.282Z,99835.11
2023-03-30T23:16:25.306Z,99834.04
2023-03-30T23:19:01.526Z,99838.33
2023-03-30T23:21:36.196Z,99838.84
2023-03-30T23:24:15.214Z,99836.78
2023-03-30T23:26:49.768Z,99838.20
2023-03-30T23:29:33.021Z,99844.21
2023-03-30T23:32:08.917Z,99849.21
2023-03-30T23:34:44.867Z,99849.23
2023-03-30T23:37:19.851Z,99851.77
2023-03-30T23:39:54.333Z,99851.41
2023-03-30T23:42:30.441Z,99846.48
2023-03-30T23:45:06.856Z,99851.70
2023-03-30T23:47:44.274Z,99847.03
2023-03-30T23:50:21.121Z,99853.38
2023-03-30T23:52:56.668Z,99850.92
2023-03-30T23:55:31.364Z,99849.46
2023-03-30T23:58:06.168Z,99851.84
